Terminal Aerodrome Forecast
Issued by NWS

Home | Current Version | Previous Version | Text Only | Print | Product List | Glossary On
Versions: 1 2 3 4 5 6 7 8 9 10 11 12 13 14
816
FTUS43 KGRB 171120
TAFAUW
TAF
KAUW 171120Z 1712/1812 36006KT 3SM -DZ BR OVC006
      TEMPO 1712/1716 2SM -FZRASN BR OVC003
     FM171600 02006KT 3SM -DZ BR OVC008
     FM171800 01005KT P6SM OVC008
     FM172300 32004KT P6SM BKN020
     FM180500 VRB03KT P6SM SCT020
     FM180900 26004KT 3SM BR SCT025=

USA.gov is the U.S. government's official web portal to all federal, state and local government web resources and services.